WETTERDATEN

GESTERN
Time Temp. Taup. r.Fe. Windrich Windstärke Windböe Druck 1h Prec. 24h Prec.
00:19 19.5 8.8 50 225 1.7 3.3 1020.7 0.0000 0.0000
00:28 19.3 8.6 50 225 1.9 3.3 1020.9 0.0000 0.0000
00:39 19.2 8.5 50 221 2.8 3.6 1021 0.0000 0.0000
00:49 18.9 8.8 52 221 1.9 3.3 1020.9 0.0000 0.0000
01:10 18 8.6 54 222 3.1 3.9 1020.8 0.0000 0.0000
01:19 17.5 8.6 56 220 3.1 4.4 1020.8 0.0000 0.0000
01:29 16.8 8.5 58 220 3.3 4.7 1020.7 0.0000 0.0000
01:39 16.1 8.1 59 220 3.3 4.4 1020.8 0.0000 0.0000
01:50 15.6 8.1 61 219 3.3 5 1020.7 0.0000 0.0000
02:00 15 7.8 62 219 3.3 5 1020.6 0.0000 0.0000
02:09 14.5 7.5 63 218 3.6 5.3 1020.5 0.0000 0.0000
02:20 14.1 7.4 64 219 3.9 5.3 1020.5 0.0000 0.0000
02:30 13.6 7.2 65 221 3.6 5 1020.5 0.0000 0.0000
02:40 13.3 7.1 66 220 3.6 5 1020.4 0.0000 0.0000
02:50 12.8 6.8 67 221 3.6 5 1020.4 0.0000 0.0000
03:00 12.4 6.7 68 220 3.6 4.7 1020.3 0.0000 0.0000
03:10 12.1 6.6 69 221 3.3 4.7 1020.3 0.0000 0.0000
03:20 11.8 6.3 69 220 3.6 5 1020.2 0.0000 0.0000
03:30 11.5 6.4 71 221 3.6 4.7 1020.2 0.0000 0.0000
03:41 11.3 6.2 71 220 3.6 4.7 1020.1 0.0000 0.0000
03:50 11.1 6.2 72 220 3.6 5.3 1020.2 0.0000 0.0000
04:00 10.9 6.1 72 220 3.6 4.7 1020.1 0.0000 0.0000
04:11 10.7 6.1 73 221 3.3 4.4 1020.2 0.0000 0.0000
04:21 10.5 5.9 73 221 3.3 4.7 1020.2 0.0000 0.0000
04:31 10.3 5.7 73 220 3.1 3.9 1020.1 0.0000 0.0000
04:41 10.2 5.6 73 220 3.3 4.4 1020.1 0.0000 0.0000
04:51 10 5.6 74 219 3.3 4.7 1020.1 0.0000 0.0000
05:01 9.8 5.4 74 220 3.6 4.7 1020.1 0.0000 0.0000
05:11 9.7 5.5 75 220 3.1 4.4 1020.1 0.0000 0.0000
05:22 9.5 5.3 75 218 3.3 4.4 1020.2 0.0000 0.0000
05:31 9.4 5.4 76 220 3.1 3.9 1020.3 0.0000 0.0000
05:41 9.3 5.3 76 220 3.1 4.4 1020.2 0.0000 0.0000
05:51 9.3 5.5 77 220 3.1 3.6 1020.1 0.0000 0.0000
06:02 9.3 5.5 77 219 3.1 3.9 1020.2 0.0000 0.0000
06:12 9.3 5.5 77 219 3.1 3.9 1020.3 0.0000 0.0000
06:21 9.4 5.8 78 218 2.8 3.6 1020.2 0.0000 0.0000
06:32 9.6 6.3 80 219 1.9 3.1 1020.3 0.0000 0.0000
06:43 9.9 6.6 80 222 3.1 9.4 1020.2 0.0000 0.0000
06:52 10.3 7.2 81 232 3.3 5.3 1020.3 0.0000 0.0000
07:01 10.7 7.4 80 34 3.3 10.8 1020.4 0.0000 0.0000
07:12 11.2 7.9 80 132 3.6 10.3 1020.3 0.0000 0.0000
07:20 11.6 8.3 80 201 3.6 9.7 1020.4 0.0000 0.0000
07:31 12.2 8.7 79 204 3.9 7.8 1020.4 0.0000 0.0000
07:41 12.9 9.4 79 189 3.9 8.3 1020.3 0.0000 0.0000
07:58 14.8 10.6 76 83 3.6 9.4 1020.4 0.0000 0.0000
08:08 15.9 10.9 72 53 5 11.4 1020.5 0.0000 0.0000
08:18 17 11.5 70 54 4.7 9.7 1020.6 0.0000 0.0000
08:29 18 11.8 67 55 5 10.8 1020.3 0.0000 0.0000
08:36 18.8 12.1 65 51 5 18.3 1020.5 0.0000 0.0000
08:47 19.6 12.1 62 5.3 13.1 1020.4 0.0000 0.0000
08:53 20.2 12.4 61 47 5.8 9.7 1020.2 0.0000 0.0000
09:06 21.3 12.7 58 356 8.6 13.9 1020.3 0.0000 0.0000
09:16 22 12.6 55 208 4.7 10.8 1020.3 0.0000 0.0000
09:26 22.6 12.3 52 154 6.1 11.4 1020.2 0.0000 0.0000
09:39 23.5 12.2 49 204 5.8 15 1020 0.0000 0.0000
09:49 24 12.9 50 209 5 10.3 1019.9 0.0000 0.0000
09:59 24.6 12.2 46 161 5.8 9.7 1020 0.0000 0.0000
10:09 24.9 11.8 44 190 3.6 6.9 1020.2 0.0000 0.0000
10:19 25.3 11.5 42 219 5 7.5 1020.1 0.0000 0.0000
10:29 25.8 11.6 41 214 3.9 7.8 1019.8 0.0000 0.0000
10:39 26.1 11.5 40 220 3.6 8.6 1019.7 0.0000 0.0000
10:50 26.6 11.5 39 219 3.6 6.4 1019.7 0.0000 0.0000
10:53 26.7 11.6 39 216 3.9 10 1019.7 0.0000 0.0000
11:03 27.2 12.1 39 219 3.6 10.3 1019.6 0.0000 0.0000
11:14 27.9 12.3 38 225 3.6 7.8 1019.5 0.0000 0.0000
11:23 28.1 12.5 38 223 5.3 10 1019.3 0.0000 0.0000
11:33 29.2 12.6 36 222 5.3 9.4 1019.3 0.0000 0.0000
11:43 29.9 12.8 35 221 4.7 8.6 1019.1 0.0000 0.0000
11:54 30.3 13.1 35 224 4.4 9.7 1019 0.0000 0.0000
12:04 31.2 13 33 223 6.4 9.7 1019 0.0000 0.0000
12:13 31.3 12.2 31 221 5.8 10.8 1019 0.0000 0.0000
12:24 31.9 11.7 29 220 3.6 6.4 1018.9 0.0000 0.0000
12:34 32 12.3 30 224 2.2 3.6 1018.7 0.0000 0.0000
12:44 32.3 10.9 27 224 3.6 6.4 1018.4 0.0000 0.0000
12:54 32.5 11.6 28 215 2.8 4.4 1018.4 0.0000 0.0000
13:04 32.9 12 28 51 1.4 3.1 1018.4 0.0000 0.0000
13:14 33.3 12.9 29 90 1.4 3.1 1018.2 0.0000 0.0000
13:27 34 14 30 90 0.6 3.1 1018.1 0.0000 0.0000
13:37 34.5 13.4 28 219 1.9 3.9 1017.9 0.0000 0.0000
13:47 34.9 13.7 28 1.1 2.8 1017.8 0.0000 0.0000
13:52 35.1 13.3 27 246 1.1 2.2 1017.9 0.0000 0.0000
14:02 34.6 12.9 27 203 1.4 3.1 1017.6 0.0000 0.0000
14:11 34.9 13.7 28 90 0.6 1.7 1017.5 0.0000 0.0000
14:27 35.7 14.4 28 223 5.8 9.4 1017.2 0.0000 0.0000
14:38 35.3 12.9 26 219 3.6 5.3 1017 0.0000 0.0000
14:48 35.7 14.4 28 221 6.1 8.6 1017.1 0.0000 0.0000
14:58 35 13.2 27 216 1.9 3.6 1016.8 0.0000 0.0000
15:08 34.5 13.4 28 217 2.2 3.9 1016.7 0.0000 0.0000
15:18 34 12.9 28 190 1.1 1.7 1016.5 0.0000 0.0000
15:28 33.2 12.8 29 196 1.7 4.7 1016.3 0.0000 0.0000
15:38 32.5 12.2 29 204 1.7 3.1 1016.3 0.0000 0.0000
15:49 31.9 13.6 33 214 1.9 3.3 1016.2 0.0000 0.0000
15:59 31.1 12.5 32 214 2.8 4.7 1016 0.0000 0.0000
16:08 30.7 12.6 33 215 2.8 4.7 1015.8 0.0000 0.0000
16:19 30.2 12.2 33 216 2.2 3.9 1015.7 0.0000 0.0000
16:29 30.1 12.1 33 216 2.2 3.9 1015.6 0.0000 0.0000
16:39 29.7 12.2 34 204 3.1 5.3 1015.4 0.0000 0.0000
16:49 29.2 11.7 34 218 2.2 3.6 1015.5 0.0000 0.0000
16:59 29.2 11.7 34 213 2.2 3.3 1015.3 0.0000 0.0000
17:09 29.1 12.1 35 209 2.8 4.4 1015.1 0.0000 0.0000
17:19 28.7 11.3 34 213 2.2 3.6 1015 0.0000 0.0000
17:29 28.7 11.7 35 211 2.2 3.6 1014.9 0.0000 0.0000
17:40 28.5 11.6 35 214 2.2 3.6 1014.9 0.0000 0.0000
17:49 28.4 11.9 36 211 2.2 3.3 1014.7 0.0000 0.0000
17:59 28.4 12.3 37 215 1.9 3.6 1014.6 0.0000 0.0000
18:10 28.3 11.4 35 217 1.9 3.1 1014.5 0.0000 0.0000
18:20 28.2 12.1 37 209 1.7 2.8 1014.4 0.0000 0.0000
18:29 28.1 12.1 37 213 1.9 3.1 1014.3 0.0000 0.0000
18:40 28 12 37 212 1.9 3.1 1014.1 0.0000 0.0000
18:50 27.8 11.4 36 219 1.9 3.1 1014.2 0.0000 0.0000
19:00 27.7 11.7 37 217 1.9 3.1 1014 0.0000 0.0000
19:10 27.5 11.1 36 212 1.9 2.8 1013.9 0.0000 0.0000
19:30 27.1 11.6 38 221 1.9 2.8 1013.6 0.0000 0.0000
19:40 27 11.1 37 221 1.9 3.1 1013.4 0.0000 0.0000
20:01 26.6 12.3 41 222 1.9 2.8 1013.4 0.0000 0.0000
20:10 26.2 14.3 48 223 1.7 3.3 1013.4 0.0000 0.0000
20:20 25.4 14.5 51 223 2.2 3.3 1013.3 0.0000 0.0000
20:31 24.5 14.3 53 213 2.8 3.3 1013.3 0.0000 0.0000
20:41 23.7 13.8 54 211 3.1 3.9 1013.3 0.0000 0.0000
20:51 22.8 13.3 55 223 3.1 3.9 1013.2 0.0000 0.0000
21:00 22 12.8 56 207 3.3 5 1013.1 0.0000 0.0000
21:11 21.3 12.4 57 218 3.3 4.4 1013.2 0.0000 0.0000
21:21 20.5 12 58 221 3.3 4.4 1013.1 0.0000 0.0000
21:31 19.8 11.8 60 220 3.6 4.7 1013.1 0.0000 0.0000
21:41 19.2 11.8 62 221 3.3 4.7 1013.1 0.0000 0.0000
21:51 18.7 11.5 63 221 3.3 4.4 1013 0.0000 0.0000
22:01 18.3 11.1 63 221 3.6 4.7 1013.1 0.0000 0.0000
22:11 18 11.1 64 221 3.6 4.7 1013 0.0000 0.0000
22:22 17.6 11.2 66 221 3.3 4.4 1013.2 0.0000 0.0000
22:32 17.2 11.2 68 221 3.3 4.4 1012.9 0.0000 0.0000
22:41 16.9 11 68 221 3.3 4.4 1012.9 0.0000 0.0000
22:52 16.7 11 69 220 3.3 4.4 1012.8 0.0000 0.0000
23:02 16.3 10.8 70 219 3.3 5 1012.8 0.0000 0.0000
23:12 16.1 10.6 70 222 3.6 4.7 1012.6 0.0000 0.0000
23:22 16.1 10.6 70 221 3.1 3.9 1012.6 0.0000 0.0000
23:32 16 10.5 70 219 3.6 4.7 1012.5 0.0000 0.0000
23:42 15.8 10.6 71 220 3.1 3.9 1012.4 0.0000 0.0000
23:52 15.6 10.4 71 221 3.1 3.9 1012.4 0.0000

TAGESSTATISTIK

2020-06-02
TEMPERATUR
MITTEL
21.9
MAXIMUM
35.7
14:27
MINIMUM
9.3
05:41
LUFTDRUCK
MITTEL
1017.7
MAXIMUM
1021.0
00:39
MINIMUM
1012.4
23:42
TAUPUNKT
MITTEL
10.5
MAXIMUM
14.5
20:20
MINIMUM
5.3
05:22
FEUCHTIGKEIT
MITTEL
52
MAXIMUM
81
06:52
MINIMUM
26
14:38
WINDSTÄRKE
MITTEL
3.2
MAXIMUM
8.6
09:06
WINDBÖE
MITTEL
5.6
MAXIMUM
18.3
08:36
WINDRICHTUNG
VORHERRSCHENDE
SW
80.4%
N
0.7
NO
5.1
O
2.9
SO
1.4
S
8.0
SW
80.4
W
0.0
NW
0.0
NIEDERSCHLAG
REGEN STUNDE
0.0
REGEN TAG
0.0
TEMPERATUR (°C)
MINIMUM
9.3
MAXIMUM
35.7
MITTEL
21.9
LUFTDRUCK (hpa)
MINIMUM
1012.4
MAXIMUM
1021.0
MITTEL
1017.7
MESSGERÄT